createdAt,value
2023-01-29T00:02:14.543Z,2.25
2023-01-29T00:04:41.403Z,2.40
2023-01-29T00:07:35.713Z,3.28
2023-01-29T00:10:02.440Z,2.00
2023-01-29T00:12:29.325Z,2.30
2023-01-29T00:14:56.117Z,3.25
2023-01-29T00:17:23.348Z,2.63
2023-01-29T00:19:50.178Z,2.58
2023-01-29T00:22:16.900Z,1.92
2023-01-29T00:24:44.336Z,1.80
2023-01-29T00:27:11.249Z,2.50
2023-01-29T00:29:38.092Z,2.30
2023-01-29T00:32:05.235Z,2.90
2023-01-29T00:34:32.205Z,3.65
2023-01-29T00:37:08.854Z,2.78
2023-01-29T00:39:47.829Z,3.15
2023-01-29T00:42:33.715Z,2.50
2023-01-29T00:45:00.628Z,2.30
2023-01-29T00:47:36.433Z,2.13
2023-01-29T00:50:06.302Z,2.03
2023-01-29T00:52:33.161Z,3.47
2023-01-29T00:55:00.858Z,3.10
2023-01-29T00:57:29.443Z,3.00
2023-01-29T00:59:57.262Z,2.80
2023-01-29T01:02:43.083Z,2.28
2023-01-29T01:05:18.131Z,2.42
2023-01-29T01:07:53.831Z,2.90
2023-01-29T01:10:24.405Z,4.45
2023-01-29T01:12:55.191Z,2.22
2023-01-29T01:15:24.409Z,2.22
2023-01-29T01:17:56.261Z,2.10
2023-01-29T01:20:24.238Z,3.28
2023-01-29T01:22:53.330Z,3.90
2023-01-29T01:25:21.324Z,3.95
2023-01-29T01:27:48.242Z,3.95
2023-01-29T01:30:16.678Z,2.80
2023-01-29T01:32:43.735Z,3.25
2023-01-29T01:35:11.750Z,3.60
2023-01-29T01:37:38.727Z,2.97
2023-01-29T01:40:12.662Z,3.33
2023-01-29T01:42:40.268Z,3.53
2023-01-29T01:45:31.702Z,2.70
2023-01-29T01:48:17.186Z,3.80
2023-01-29T01:50:51.781Z,2.90
2023-01-29T01:53:24.886Z,2.72
2023-01-29T01:56:27.974Z,2.13
2023-01-29T01:59:12.634Z,1.63
2023-01-29T02:01:42.819Z,2.03
2023-01-29T02:04:35.491Z,2.75
2023-01-29T02:07:23.670Z,2.40
2023-01-29T02:09:53.646Z,2.20
2023-01-29T02:12:22.292Z,2.13
2023-01-29T02:14:51.694Z,2.55
2023-01-29T02:17:20.045Z,2.30
2023-01-29T02:20:08.334Z,2.33
2023-01-29T02:22:48.637Z,2.25
2023-01-29T02:25:39.225Z,2.65
2023-01-29T02:28:49.066Z,3.28
2023-01-29T02:31:21.855Z,3.83
2023-01-29T02:33:51.370Z,3.95
2023-01-29T02:36:38.434Z,3.60
2023-01-29T02:39:23.457Z,3.55
2023-01-29T02:42:15.582Z,4.00
2023-01-29T02:44:55.689Z,3.38
2023-01-29T02:47:24.956Z,3.88
2023-01-29T02:50:17.356Z,4.07
2023-01-29T02:53:14.734Z,3.50
2023-01-29T02:56:11.598Z,2.97
2023-01-29T02:58:52.148Z,2.55
2023-01-29T03:01:30.331Z,2.30
2023-01-29T03:04:04.273Z,3.88
2023-01-29T03:06:37.451Z,3.33
2023-01-29T03:09:25.473Z,2.60
2023-01-29T03:11:58.727Z,2.90
2023-01-29T03:15:01.509Z,2.60
2023-01-29T03:17:37.198Z,3.00
2023-01-29T03:20:09.916Z,3.25
2023-01-29T03:22:38.130Z,2.28
2023-01-29T03:25:24.504Z,2.10
2023-01-29T03:28:20.651Z,3.80
2023-01-29T03:31:13.031Z,4.15
2023-01-29T03:33:48.710Z,2.50
2023-01-29T03:36:45.323Z,2.83
2023-01-29T03:39:15.364Z,1.98
2023-01-29T03:41:54.026Z,2.40
2023-01-29T03:45:08.469Z,2.25
2023-01-29T03:47:51.339Z,2.28
2023-01-29T03:50:28.605Z,2.20
2023-01-29T03:53:21.039Z,2.10
2023-01-29T03:56:09.189Z,2.10
2023-01-29T03:59:29.962Z,2.28
2023-01-29T04:02:27.611Z,1.98
2023-01-29T04:05:19.811Z,3.03
2023-01-29T04:08:20.494Z,1.77
2023-01-29T04:10:49.838Z,3.65
2023-01-29T04:13:19.258Z,3.70
2023-01-29T04:15:54.277Z,2.83
2023-01-29T04:18:34.573Z,3.03
2023-01-29T04:21:10.557Z,2.55
2023-01-29T04:23:37.620Z,3.20
2023-01-29T04:26:38.383Z,3.00
2023-01-29T04:29:38.483Z,2.75
2023-01-29T04:32:32.949Z,3.42
2023-01-29T04:35:36.175Z,3.35
2023-01-29T04:38:18.983Z,3.25
2023-01-29T04:41:01.392Z,2.70
2023-01-29T04:44:03.432Z,3.05
2023-01-29T04:46:51.604Z,2.58
2023-01-29T04:49:34.688Z,2.17
2023-01-29T04:52:09.474Z,2.80
2023-01-29T04:55:03.993Z,4.50
2023-01-29T04:57:39.837Z,5.83
2023-01-29T05:00:13.340Z,5.60
2023-01-29T05:02:42.085Z,7.10
2023-01-29T05:05:10.824Z,6.50
2023-01-29T05:07:39.474Z,5.47
2023-01-29T05:10:09.143Z,4.75
2023-01-29T05:12:38.119Z,4.78
2023-01-29T05:15:11.223Z,4.15
2023-01-29T05:17:38.219Z,4.50
2023-01-29T05:20:06.041Z,4.05
2023-01-29T05:22:36.079Z,4.30
2023-01-29T05:25:02.852Z,4.30
2023-01-29T05:27:53.499Z,3.53
2023-01-29T05:30:20.437Z,3.33
2023-01-29T05:32:47.223Z,2.22
2023-01-29T05:35:14.100Z,2.13
2023-01-29T05:37:40.904Z,2.63
2023-01-29T05:40:09.697Z,3.25
2023-01-29T05:42:36.744Z,2.63
2023-01-29T05:45:04.071Z,2.60
2023-01-29T05:47:30.826Z,2.30
2023-01-29T05:50:00.650Z,2.67
2023-01-29T05:52:27.530Z,4.25
2023-01-29T05:54:54.255Z,4.00
2023-01-29T05:57:20.992Z,3.70
2023-01-29T05:59:47.697Z,4.85
2023-01-29T06:02:14.522Z,4.15
2023-01-29T06:04:41.322Z,3.97
2023-01-29T06:07:08.037Z,3.58
2023-01-29T06:09:34.814Z,3.60
2023-01-29T06:12:01.599Z,3.45
2023-01-29T06:14:28.416Z,3.20
2023-01-29T06:16:55.172Z,3.13
2023-01-29T06:19:22.041Z,3.35
2023-01-29T06:21:48.891Z,3.40
2023-01-29T06:24:16.034Z,6.13
2023-01-29T06:26:42.949Z,4.45
2023-01-29T06:29:10.017Z,6.07
2023-01-29T06:31:39.132Z,5.85
2023-01-29T06:34:09.146Z,6.63
2023-01-29T06:36:36.798Z,6.60
2023-01-29T06:39:04.402Z,7.72
2023-01-29T06:41:31.190Z,6.55
2023-01-29T06:43:57.931Z,5.68
2023-01-29T06:46:24.685Z,8.52
2023-01-29T06:48:51.492Z,6.25
2023-01-29T06:51:18.454Z,7.18
2023-01-29T06:53:46.410Z,5.43
2023-01-29T06:56:20.694Z,5.68
2023-01-29T06:58:47.442Z,7.10
2023-01-29T07:01:33.081Z,6.93
2023-01-29T07:04:02.982Z,6.45
2023-01-29T07:06:30.462Z,6.47
2023-01-29T07:08:57.388Z,6.32
2023-01-29T07:11:24.229Z,7.78
2023-01-29T07:13:51.091Z,7.70
2023-01-29T07:16:19.135Z,6.45
2023-01-29T07:18:46.040Z,7.80
2023-01-29T07:21:12.832Z,6.75
2023-01-29T07:23:39.571Z,6.03
2023-01-29T07:26:08.121Z,6.28
2023-01-29T07:28:39.247Z,7.72
2023-01-29T07:31:06.899Z,7.07
2023-01-29T07:33:34.499Z,6.38
2023-01-29T07:36:01.244Z,4.97
2023-01-29T07:38:28.050Z,6.60
2023-01-29T07:40:55.152Z,6.80
2023-01-29T07:43:24.662Z,6.30
2023-01-29T07:45:51.931Z,8.95
2023-01-29T07:48:18.752Z,7.18
2023-01-29T07:50:45.693Z,5.32
2023-01-29T07:53:15.861Z,5.00
2023-01-29T07:55:45.664Z,3.97
2023-01-29T07:58:12.799Z,4.28
2023-01-29T08:00:39.955Z,3.60
2023-01-29T08:03:10.776Z,5.15
2023-01-29T08:05:37.818Z,4.72
2023-01-29T08:08:07.287Z,5.50
2023-01-29T08:10:39.349Z,9.95
2023-01-29T08:13:07.228Z,9.50
2023-01-29T08:15:36.059Z,6.90
2023-01-29T08:18:05.043Z,7.18
2023-01-29T08:20:31.850Z,6.70
2023-01-29T08:23:00.375Z,8.00
2023-01-29T08:25:27.537Z,7.40
2023-01-29T08:27:54.702Z,6.85
2023-01-29T08:30:21.732Z,5.78
2023-01-29T08:32:48.550Z,6.18
2023-01-29T08:35:15.384Z,6.45
2023-01-29T08:37:42.070Z,6.80
2023-01-29T08:40:10.817Z,4.72
2023-01-29T08:42:37.598Z,5.88
2023-01-29T08:45:05.638Z,5.88
2023-01-29T08:47:32.314Z,8.70
2023-01-29T08:49:59.168Z,5.55
2023-01-29T08:52:25.920Z,6.40
2023-01-29T08:54:52.705Z,8.13
2023-01-29T08:57:19.453Z,8.02
2023-01-29T08:59:46.337Z,6.50
2023-01-29T09:02:13.061Z,7.85
2023-01-29T09:04:39.868Z,6.78
2023-01-29T09:07:06.604Z,8.00
2023-01-29T09:09:33.357Z,8.13
2023-01-29T09:12:00.090Z,7.32
2023-01-29T09:14:27.627Z,5.55
2023-01-29T09:16:54.446Z,5.93
2023-01-29T09:19:23.341Z,5.38
2023-01-29T09:21:51.942Z,4.72
2023-01-29T09:24:18.668Z,4.47
2023-01-29T09:26:45.497Z,4.43
2023-01-29T09:29:12.455Z,4.20
2023-01-29T09:31:39.378Z,5.85
2023-01-29T09:34:07.501Z,6.57
2023-01-29T09:36:34.815Z,6.38
2023-01-29T09:39:01.638Z,5.30
2023-01-29T09:41:52.611Z,5.53
2023-01-29T09:44:56.712Z,4.78
2023-01-29T09:47:26.940Z,4.50
2023-01-29T09:50:20.406Z,6.10
2023-01-29T09:52:53.423Z,4.85
2023-01-29T09:55:28.270Z,5.57
2023-01-29T09:57:56.640Z,7.40
2023-01-29T10:00:46.079Z,5.68
2023-01-29T10:03:43.684Z,7.10
2023-01-29T10:06:20.617Z,5.63
2023-01-29T10:09:05.609Z,8.20
2023-01-29T10:11:59.599Z,7.35
2023-01-29T10:14:48.257Z,5.88
2023-01-29T10:17:49.548Z,6.20
2023-01-29T10:20:36.026Z,7.78
2023-01-29T10:23:22.428Z,6.30
2023-01-29T10:25:49.654Z,5.93
2023-01-29T10:28:33.945Z,6.20
2023-01-29T10:31:38.501Z,6.07
2023-01-29T10:34:23.929Z,7.25
2023-01-29T10:36:50.961Z,7.00
2023-01-29T10:39:23.039Z,9.98
2023-01-29T10:42:16.054Z,8.15
2023-01-29T10:45:07.864Z,9.35
2023-01-29T10:48:09.656Z,9.10
2023-01-29T10:50:52.547Z,6.60
2023-01-29T10:53:51.191Z,5.55
2023-01-29T10:56:45.789Z,8.18
2023-01-29T10:59:36.758Z,8.75
2023-01-29T11:02:17.879Z,8.63
2023-01-29T11:04:48.723Z,8.80
2023-01-29T11:07:19.451Z,9.77
2023-01-29T11:09:57.607Z,8.75
2023-01-29T11:12:30.615Z,8.88
2023-01-29T11:15:05.015Z,6.55
2023-01-29T11:17:31.869Z,7.03
2023-01-29T11:19:58.667Z,8.52
2023-01-29T11:22:27.855Z,7.25
2023-01-29T11:25:18.317Z,6.75
2023-01-29T11:27:51.336Z,7.78
2023-01-29T11:30:27.076Z,9.43
2023-01-29T11:33:22.011Z,7.65
2023-01-29T11:35:49.085Z,7.65
2023-01-29T11:38:15.761Z,7.05
2023-01-29T11:40:43.013Z,7.95
2023-01-29T11:43:12.824Z,8.27
2023-01-29T11:45:40.386Z,7.00
2023-01-29T11:48:18.950Z,6.95
2023-01-29T11:50:56.693Z,7.22
2023-01-29T11:53:35.429Z,6.90
2023-01-29T11:56:16.810Z,6.53
2023-01-29T11:58:45.645Z,6.80
2023-01-29T12:01:13.178Z,7.07
2023-01-29T12:03:44.218Z,6.22
2023-01-29T12:06:35.115Z,9.60
2023-01-29T12:09:07.982Z,7.95
2023-01-29T12:11:35.982Z,9.32
2023-01-29T12:14:05.515Z,10.13
2023-01-29T12:16:50.343Z,6.57
2023-01-29T12:19:45.257Z,6.80
2023-01-29T12:22:27.356Z,7.05
2023-01-29T12:25:17.090Z,7.65
2023-01-29T12:27:53.940Z,9.00
2023-01-29T12:30:42.558Z,10.57
2023-01-29T12:33:38.211Z,12.60
2023-01-29T12:36:15.691Z,10.13
2023-01-29T12:38:44.861Z,8.77
2023-01-29T12:41:30.630Z,8.88
2023-01-29T12:44:12.009Z,7.55
2023-01-29T12:46:44.116Z,7.97
2023-01-29T12:49:19.010Z,9.90
2023-01-29T12:52:11.615Z,10.43
2023-01-29T12:54:54.647Z,10.68
2023-01-29T12:57:32.422Z,9.40
2023-01-29T13:00:06.076Z,9.85
2023-01-29T13:02:35.697Z,8.23
2023-01-29T13:05:20.663Z,9.85
2023-01-29T13:07:53.755Z,8.68
2023-01-29T13:10:30.118Z,10.18
2023-01-29T13:13:13.789Z,8.98
2023-01-29T13:15:44.236Z,7.93
2023-01-29T13:18:44.306Z,8.80
2023-01-29T13:21:22.777Z,7.80
2023-01-29T13:23:53.594Z,9.10
2023-01-29T13:26:21.971Z,9.57
2023-01-29T13:28:51.101Z,9.90
2023-01-29T13:31:41.074Z,9.40
2023-01-29T13:34:15.287Z,8.18
2023-01-29T13:39:25.462Z,10.20
2023-01-29T13:41:53.546Z,9.57
2023-01-29T13:44:34.966Z,10.55
2023-01-29T13:47:10.846Z,10.05
2023-01-29T13:49:42.304Z,10.18
2023-01-29T13:52:26.280Z,10.32
2023-01-29T13:54:57.964Z,9.85
2023-01-29T13:57:43.477Z,11.07
2023-01-29T14:00:33.238Z,11.07
2023-01-29T14:03:09.234Z,11.07
2023-01-29T14:05:57.863Z,9.43
2023-01-29T14:08:44.942Z,11.43
2023-01-29T14:11:21.774Z,12.23
2023-01-29T14:13:50.005Z,10.23
2023-01-29T14:16:16.903Z,12.30
2023-01-29T14:18:58.847Z,9.68
2023-01-29T14:21:31.690Z,11.05
2023-01-29T14:24:18.859Z,10.55
2023-01-29T14:26:48.771Z,10.20
2023-01-29T14:29:34.245Z,11.15
2023-01-29T14:32:07.573Z,11.90
2023-01-29T14:34:41.487Z,11.95
2023-01-29T14:37:17.097Z,11.20
2023-01-29T14:39:52.143Z,10.77
2023-01-29T14:42:32.573Z,11.88
2023-01-29T14:45:07.823Z,10.15
2023-01-29T14:47:34.543Z,12.90
2023-01-29T14:50:06.464Z,12.82
2023-01-29T14:52:39.689Z,9.98
2023-01-29T14:55:11.056Z,11.43
2023-01-29T14:57:38.855Z,12.13
2023-01-29T15:00:13.897Z,11.38
2023-01-29T15:02:43.951Z,11.07
2023-01-29T15:05:17.948Z,10.05
2023-01-29T15:07:53.977Z,9.63
2023-01-29T15:10:27.045Z,8.20
2023-01-29T15:13:24.693Z,10.93
2023-01-29T15:16:02.923Z,11.02
2023-01-29T15:18:41.522Z,11.23
2023-01-29T15:21:19.308Z,10.23
2023-01-29T15:23:49.995Z,10.65
2023-01-29T15:26:22.535Z,10.80
2023-01-29T15:29:04.943Z,11.70
2023-01-29T15:31:32.574Z,9.98
2023-01-29T15:34:04.905Z,12.35
2023-01-29T15:36:32.716Z,12.23
2023-01-29T15:39:11.991Z,11.38
2023-01-29T15:41:38.978Z,12.65
2023-01-29T15:44:16.759Z,11.70
2023-01-29T15:46:48.310Z,11.45
2023-01-29T15:49:25.615Z,10.15
2023-01-29T15:51:57.488Z,8.98
2023-01-29T15:54:26.007Z,10.60
2023-01-29T15:56:53.978Z,10.80
2023-01-29T15:59:34.653Z,8.52
2023-01-29T16:02:35.478Z,10.23
2023-01-29T16:05:28.938Z,9.30
2023-01-29T16:08:05.099Z,11.88
2023-01-29T16:10:33.567Z,10.68
2023-01-29T16:13:00.963Z,8.73
2023-01-29T16:15:36.949Z,6.63
2023-01-29T16:18:21.054Z,7.18
2023-01-29T16:20:53.658Z,8.80
2023-01-29T16:23:30.576Z,7.57
2023-01-29T16:26:22.210Z,6.05
2023-01-29T16:28:50.449Z,5.50
2023-01-29T16:31:31.880Z,5.93
2023-01-29T16:34:06.428Z,5.85
2023-01-29T16:36:33.911Z,5.57
2023-01-29T16:39:05.314Z,6.55
2023-01-29T16:41:38.055Z,6.78
2023-01-29T16:44:32.973Z,8.70
2023-01-29T16:47:20.572Z,6.28
2023-01-29T16:49:55.606Z,5.72
2023-01-29T16:52:33.899Z,4.95
2023-01-29T16:55:21.898Z,5.78
2023-01-29T16:57:55.859Z,5.90
2023-01-29T17:00:28.561Z,4.60
2023-01-29T17:03:04.169Z,5.15
2023-01-29T17:05:35.669Z,5.80
2023-01-29T17:08:04.023Z,4.57
2023-01-29T17:10:31.316Z,5.13
2023-01-29T17:13:07.295Z,5.25
2023-01-29T17:15:43.207Z,3.78
2023-01-29T17:18:20.039Z,4.10
2023-01-29T17:20:47.265Z,4.75
2023-01-29T17:23:14.212Z,4.10
2023-01-29T17:25:41.428Z,4.50
2023-01-29T17:28:10.660Z,4.68
2023-01-29T17:30:38.570Z,4.78
2023-01-29T17:33:16.701Z,4.90
2023-01-29T17:35:45.548Z,4.13
2023-01-29T17:38:25.033Z,6.63
2023-01-29T17:41:03.316Z,5.03
2023-01-29T17:43:30.199Z,5.45
2023-01-29T17:45:57.070Z,5.97
2023-01-29T17:48:26.970Z,5.20
2023-01-29T17:50:56.257Z,4.47
2023-01-29T17:53:26.538Z,4.90
2023-01-29T17:55:57.300Z,4.38
2023-01-29T17:58:26.108Z,3.60
2023-01-29T18:00:54.299Z,4.05
2023-01-29T18:03:22.305Z,3.95
2023-01-29T18:05:50.216Z,5.07
2023-01-29T18:08:18.017Z,3.50
2023-01-29T18:10:46.237Z,4.80
2023-01-29T18:13:13.905Z,5.03
2023-01-29T18:15:40.741Z,4.50
2023-01-29T18:18:13.475Z,5.03
2023-01-29T18:20:40.477Z,5.10
2023-01-29T18:23:08.217Z,4.50
2023-01-29T18:25:35.148Z,4.70
2023-01-29T18:28:02.303Z,3.47
2023-01-29T18:30:29.497Z,4.78
2023-01-29T18:32:57.692Z,3.75
2023-01-29T18:35:25.869Z,3.85
2023-01-29T18:37:52.630Z,5.43
2023-01-29T18:40:19.423Z,5.88
2023-01-29T18:42:46.950Z,5.43
2023-01-29T18:45:15.239Z,4.78
2023-01-29T18:47:42.450Z,4.40
2023-01-29T18:50:10.879Z,5.55
2023-01-29T18:52:37.819Z,4.57
2023-01-29T18:55:04.993Z,6.47
2023-01-29T18:58:26.818Z,7.53
2023-01-29T19:00:19.661Z,4.93
2023-01-29T19:02:46.552Z,6.60
2023-01-29T19:05:13.431Z,5.95
2023-01-29T19:07:40.212Z,8.15
2023-01-29T19:10:09.320Z,5.80
2023-01-29T19:12:36.253Z,5.93
2023-01-29T19:15:03.164Z,7.07
2023-01-29T19:17:30.072Z,5.60
2023-01-29T19:20:01.939Z,5.45
2023-01-29T19:22:29.428Z,6.78
2023-01-29T19:24:56.293Z,5.57
2023-01-29T19:27:23.749Z,6.03
2023-01-29T19:29:51.028Z,5.60
2023-01-29T19:32:18.190Z,6.38
2023-01-29T19:34:45.422Z,5.97
2023-01-29T19:37:12.280Z,7.07
2023-01-29T19:39:39.045Z,4.68
2023-01-29T19:42:05.909Z,5.13
2023-01-29T19:44:32.706Z,6.00
2023-01-29T19:46:59.505Z,6.68
2023-01-29T19:49:27.479Z,5.22
2023-01-29T19:51:56.159Z,6.05
2023-01-29T19:54:22.998Z,5.43
2023-01-29T19:56:49.749Z,5.72
2023-01-29T19:59:16.702Z,5.47
2023-01-29T20:01:43.474Z,13.60
2023-01-29T20:04:12.601Z,17.77
2023-01-29T20:06:39.629Z,19.00
2023-01-29T20:09:06.624Z,20.85
2023-01-29T20:11:33.892Z,19.85
2023-01-29T20:14:00.807Z,22.00
2023-01-29T20:16:27.714Z,20.35
2023-01-29T20:18:54.461Z,20.77
2023-01-29T20:21:22.127Z,19.23
2023-01-29T20:23:50.505Z,19.70
2023-01-29T20:26:23.996Z,20.70
2023-01-29T20:28:57.102Z,17.80
2023-01-29T20:31:24.159Z,18.10
2023-01-29T20:33:51.266Z,18.85
2023-01-29T20:36:18.107Z,17.17
2023-01-29T20:38:44.895Z,19.27
2023-01-29T20:41:17.308Z,17.10
2023-01-29T20:43:45.109Z,23.45
2023-01-29T20:46:12.617Z,19.67
2023-01-29T20:48:39.994Z,22.73
2023-01-29T20:51:08.059Z,21.88
2023-01-29T20:53:35.241Z,22.27
2023-01-29T20:56:04.324Z,20.70
2023-01-29T20:58:31.654Z,22.25
2023-01-29T21:00:58.557Z,22.17
2023-01-29T21:03:27.985Z,20.48
2023-01-29T21:05:58.991Z,19.27
2023-01-29T21:08:25.737Z,22.10
2023-01-29T21:10:53.397Z,21.40
2023-01-29T21:13:20.533Z,19.52
2023-01-29T21:15:49.086Z,22.50
2023-01-29T21:18:15.860Z,20.10
2023-01-29T21:20:42.744Z,18.67
2023-01-29T21:23:10.579Z,20.20
2023-01-29T21:25:38.625Z,21.05
2023-01-29T21:28:06.287Z,17.40
2023-01-29T21:30:33.967Z,17.10
2023-01-29T21:33:00.751Z,18.23
2023-01-29T21:35:27.566Z,19.42
2023-01-29T21:37:54.353Z,16.98
2023-01-29T21:40:25.266Z,18.95
2023-01-29T21:43:11.018Z,21.45
2023-01-29T21:45:39.000Z,20.35
2023-01-29T21:48:06.048Z,18.65
2023-01-29T21:50:33.157Z,18.85
2023-01-29T21:53:00.463Z,22.42
2023-01-29T21:55:27.368Z,21.98
2023-01-29T21:57:54.186Z,22.92
2023-01-29T22:00:21.215Z,20.23
2023-01-29T22:02:50.022Z,19.67
2023-01-29T22:05:19.816Z,22.27
2023-01-29T22:07:48.295Z,19.63
2023-01-29T22:10:18.572Z,19.40
2023-01-29T22:12:46.075Z,19.40
2023-01-29T22:15:13.893Z,24.40
2023-01-29T22:17:41.638Z,19.27
2023-01-29T22:20:12.854Z,20.23
2023-01-29T22:22:42.254Z,20.30
2023-01-29T22:25:09.525Z,19.45
2023-01-29T22:27:36.492Z,19.85
2023-01-29T22:30:04.497Z,20.85
2023-01-29T22:32:37.133Z,21.58
2023-01-29T22:35:04.128Z,22.17
2023-01-29T22:37:30.922Z,21.30
2023-01-29T22:39:57.805Z,21.73
2023-01-29T22:42:24.733Z,21.02
2023-01-29T22:44:51.594Z,22.65
2023-01-29T22:47:18.671Z,22.80
2023-01-29T22:49:49.006Z,21.15
2023-01-29T22:52:15.800Z,23.65
2023-01-29T22:54:43.643Z,19.27
2023-01-29T22:57:12.806Z,22.83
2023-01-29T22:59:40.038Z,23.70
2023-01-29T23:02:07.987Z,21.92
2023-01-29T23:04:45.493Z,21.85
2023-01-29T23:07:12.369Z,23.80
2023-01-29T23:09:39.197Z,23.83
2023-01-29T23:12:06.482Z,22.67
2023-01-29T23:14:33.414Z,22.23
2023-01-29T23:17:00.387Z,23.73
2023-01-29T23:19:27.448Z,24.30
2023-01-29T23:21:54.206Z,24.40
2023-01-29T23:24:21.110Z,22.65
2023-01-29T23:27:06.690Z,23.95
2023-01-29T23:29:33.585Z,23.83
2023-01-29T23:32:00.361Z,23.27
2023-01-29T23:34:27.119Z,23.20
2023-01-29T23:36:53.940Z,22.08
2023-01-29T23:39:20.838Z,22.17
2023-01-29T23:41:47.874Z,23.27
2023-01-29T23:44:14.868Z,20.75
2023-01-29T23:46:41.749Z,23.60
2023-01-29T23:49:08.677Z,23.30
2023-01-29T23:51:35.448Z,23.38
2023-01-29T23:54:02.242Z,22.45
2023-01-29T23:56:28.992Z,22.08
2023-01-29T23:58:56.727Z,22.42
